Skip Navigation LinksHome page > Weather > Current weather Skip Navigation Links

Current Weather

Dansville Muni, Dansville, N.Y.

For information only: do not use for flight planning or navigation.
Latest weather
Observation time Friday, March 23, 2018 2:54 AM EDT
Local time Friday, March 23, 2018 3:11 AM EDT
Flight conditions Visual Meteorological Conditions
Wind speed calm
Visibility 10 mi.
Sky condition
Ceiling unlimited
Sky clear
Temperature 24°F
Dewpoint 18°F
Altimeter 30.12 in.Hg
Derived measurements
Relative humidity 77%
Wind chill 24°F
Density altitude -1907 ft.
Sea-level pressure 30.16 in.Hg
Fully automated report.
Automated weather observing station with precipitation discriminator.
METAR KDSV 230654Z AUTO 00000KT 10SM CLR M04/M08 A3012 RMK AO2 SLP215 T10441078


Location code

InnerDrive.Weather 4.0.6615.0 Release CLR 4.0.30319.42000
Copyright ©2018 Inner Drive Technology. All rights reserved. Portions Copyright ©1986-2018 David Braverman.

Find weather

Site navigation

Skip Navigation Links

Place info

Page info

PayPal - The safer, easier way to pay online!

Return home.

Copyright ©2018 Inner Drive Technology. Purveyors of fine, hand-crafted computer software. Page printed 2018-03-23T07:11:08 UTC.